Time;durP1;ratioP1;P1;durP2;ratioP2;P2;SDS_P1;SDS_P2;PMS_P1;PMS_P2;Temp;Humidity;BMP_temperature;BMP_pressure;BME280_temperature;BME280_humidity;BME280_pressure;Samples;Min_cycle;Max_cycle;Signal;HPM_P1;HPM_P2
2023/02/02 00:08:49;;;;;;;27.20;14.10;;;;;;;-0.35;100.00;98556.69;104278;1304;545405;-67
2023/02/02 00:11:18;;;;;;;25.30;12.20;;;;;;;-0.24;100.00;98559.43;106622;1286;22771;-68
2023/02/02 00:13:46;;;;;;;20.40;8.60;;;;;;;-0.07;100.00;98565.90;106598;1282;23722;-67
2023/02/02 00:16:29;;;;;;;18.50;7.60;;;;;;;0.09;100.00;98565.77;107377;1276;22544;-68
2023/02/02 00:19:03;;;;;;;17.80;6.70;;;;;;;0.23;100.00;98566.37;107462;1276;22570;-68
2023/02/02 00:21:32;;;;;;;13.10;5.20;;;;;;;0.35;100.00;98559.30;107630;1274;204239;-68
2023/02/02 00:24:01;;;;;;;12.10;5.90;;;;;;;0.41;100.00;98559.39;107667;1274;25402;-69
2023/02/02 00:26:29;;;;;;;14.00;5.70;;;;;;;0.47;100.00;98560.03;107714;1274;23285;-68
2023/02/02 00:28:57;;;;;;;11.50;5.40;;;;;;;0.59;100.00;98559.27;107538;1274;26034;-69
2023/02/02 00:31:25;;;;;;;11.30;5.50;;;;;;;0.69;100.00;98558.52;107569;1274;22513;-68
2023/02/02 00:33:53;;;;;;;13.90;6.40;;;;;;;0.74;100.00;98558.31;107641;1274;25660;-69
2023/02/02 00:36:21;;;;;;;14.20;6.60;;;;;;;0.74;100.00;98562.16;107715;1274;25321;-68
2023/02/02 00:38:50;;;;;;;14.10;6.20;;;;;;;0.79;100.00;98555.44;107627;1273;25284;-68
2023/02/02 00:41:18;;;;;;;10.70;5.10;;;;;;;0.86;100.00;98554.95;107556;1273;22532;-69
2023/02/02 00:45:14;;;;;;;15.20;6.20;;;;;;;0.88;100.00;98548.04;107654;1273;22646;-68
2023/02/02 00:46:38;;;;;;;14.60;5.90;;;;;;;0.88;100.00;98548.79;107582;1275;27076;-69
2023/02/02 00:49:06;;;;;;;13.30;6.20;;;;;;;0.91;100.00;98553.66;107651;1273;24324;-69
2023/02/02 00:51:36;;;;;;;15.30;6.40;;;;;;;0.96;100.00;98551.41;107705;1271;23325;-68
2023/02/02 00:54:05;;;;;;;15.60;6.60;;;;;;;0.96;100.00;98553.80;107444;1275;25399;-69
2023/02/02 00:56:33;;;;;;;14.20;5.50;;;;;;;0.93;100.00;98555.10;107551;1275;22523;-68
2023/02/02 00:59:01;;;;;;;13.30;5.90;;;;;;;0.99;100.00;98546.91;107450;1273;22544;-69
2023/02/02 01:01:30;;;;;;;12.10;5.40;;;;;;;1.05;100.00;98549.48;107393;1267;25503;-68
2023/02/02 01:03:58;;;;;;;13.30;5.90;;;;;;;1.04;100.00;98551.08;107470;1271;25323;-68
2023/02/02 01:06:27;;;;;;;12.40;5.40;;;;;;;1.01;100.00;98550.44;107615;1272;22710;-68
2023/02/02 01:08:55;;;;;;;15.60;6.10;;;;;;;1.06;100.00;98546.75;107603;1273;24313;-69
2023/02/02 01:11:24;;;;;;;15.40;6.50;;;;;;;1.11;100.00;98547.52;107504;1270;25346;-69
2023/02/02 01:13:53;;;;;;;13.10;6.40;;;;;;;1.07;100.00;98550.64;107280;1258;22612;-69
2023/02/02 01:16:21;;;;;;;16.80;6.20;;;;;;;1.04;100.00;98549.09;107560;1274;26497;-69
2023/02/02 01:18:49;;;;;;;14.10;5.60;;;;;;;1.07;100.00;98548.62;107685;1273;25271;-69
2023/02/02 01:21:17;;;;;;;13.10;5.70;;;;;;;1.10;100.00;98548.52;107571;1274;25211;-69
2023/02/02 01:23:45;;;;;;;13.70;5.30;;;;;;;1.06;100.00;98547.04;107699;1266;23240;-69
2023/02/02 01:26:14;;;;;;;14.60;5.40;;;;;;;1.01;100.00;98540.84;107499;1275;23271;-69
2023/02/02 01:28:42;;;;;;;13.70;5.40;;;;;;;1.03;100.00;98536.52;107530;1267;26321;-69
2023/02/02 01:31:12;;;;;;;12.80;5.60;;;;;;;1.05;100.00;98541.22;107366;1273;23869;-69
2023/02/02 01:33:42;;;;;;;15.20;6.40;;;;;;;1.05;100.00;98541.33;107540;1259;22554;-68
2023/02/02 01:36:13;;;;;;;16.30;6.40;;;;;;;1.02;100.00;98540.90;110406;1271;22470;-69
2023/02/02 01:38:41;;;;;;;14.10;6.20;;;;;;;1.02;100.00;98539.83;110449;1274;22936;-69
2023/02/02 01:41:15;;;;;;;13.40;5.60;;;;;;;1.09;100.00;98541.30;110419;1272;22970;-69
2023/02/02 01:43:43;;;;;;;15.20;6.30;;;;;;;1.12;100.00;98543.35;110445;1274;23275;-69
2023/02/02 01:46:32;;;;;;;13.70;6.20;;;;;;;1.09;100.00;98543.39;108794;1274;22558;-69
2023/02/02 01:49:07;;;;;;;14.70;6.10;;;;;;;1.05;100.00;98545.62;107609;1274;22557;-68
2023/02/02 01:51:42;;;;;;;14.30;6.10;;;;;;;1.08;100.00;98543.52;107486;1274;24187;-69
2023/02/02 01:54:14;;;;;;;16.00;6.10;;;;;;;1.10;100.00;98545.51;110461;1273;22390;-69
2023/02/02 01:56:48;;;;;;;15.30;5.90;;;;;;;1.07;100.00;98546.73;110396;1269;22305;-69
2023/02/02 01:59:16;;;;;;;12.60;5.80;;;;;;;1.08;100.00;98549.23;110448;1275;22955;-69
2023/02/02 02:01:45;;;;;;;12.50;6.00;;;;;;;1.14;100.00;98551.90;110446;1268;22281;-69
2023/02/02 02:04:14;;;;;;;11.70;5.80;;;;;;;1.18;100.00;98548.34;110411;1272;23294;-69
2023/02/02 02:06:45;;;;;;;11.60;5.80;;;;;;;1.14;100.00;98543.27;110257;1271;22323;-69
2023/02/02 02:09:13;;;;;;;14.30;6.10;;;;;;;1.15;100.00;98541.63;110333;1275;22857;-69
2023/02/02 02:11:41;;;;;;;13.60;6.10;;;;;;;1.21;100.00;98543.45;110446;1275;22447;-69
2023/02/02 02:17:14;;;;;;;14.20;6.40;;;;;;;1.20;100.00;98545.11;110421;1273;22750;-69
2023/02/02 02:29:19;;;;;;;14.90;5.50;;;;;;;1.15;100.00;98553.52;110421;1268;22509;-69
2023/02/02 02:31:52;;;;;;;13.50;5.80;;;;;;;1.13;100.00;98549.36;110404;1275;22383;-69
2023/02/02 02:34:32;;;;;;;15.60;7.10;;;;;;;1.18;100.00;98551.89;109699;1275;24582;-69
2023/02/02 02:37:19;;;;;;;14.60;6.50;;;;;;;1.22;100.00;98554.52;107567;1275;26522;-68
2023/02/02 02:39:51;;;;;;;14.00;6.30;;;;;;;1.16;100.00;98555.97;107610;1274;22747;-68
2023/02/02 02:42:21;;;;;;;15.30;6.20;;;;;;;1.16;100.00;98558.27;109119;1275;24206;-69
2023/02/02 02:44:50;;;;;;;15.80;5.70;;;;;;;1.21;100.00;98562.17;107549;1275;22638;-68
2023/02/02 02:47:18;;;;;;;15.20;6.10;;;;;;;1.19;100.00;98564.73;107532;1275;22705;-68
2023/02/02 02:49:47;;;;;;;15.80;5.90;;;;;;;1.12;100.00;98562.86;107503;1275;22581;-68
2023/02/02 02:52:15;;;;;;;14.00;6.30;;;;;;;1.10;100.00;98563.14;107566;1272;25479;-68
2023/02/02 02:54:48;;;;;;;15.40;6.00;;;;;;;1.12;100.00;98565.05;107401;1275;22527;-68
2023/02/02 02:57:40;;;;;;;12.90;5.00;;;;;;;1.10;100.00;98566.46;107570;1275;22558;-69
2023/02/02 03:00:15;;;;;;;11.50;5.00;;;;;;;1.02;100.00;98559.98;107770;1274;22602;-68
2023/02/02 03:03:00;;;;;;;13.40;5.60;;;;;;;0.99;100.00;98563.26;107610;1269;22524;-68
2023/02/02 03:05:48;;;;;;;12.60;5.30;;;;;;;1.03;100.00;98565.04;107714;1272;22557;-68
2023/02/02 03:08:23;;;;;;;12.30;5.30;;;;;;;1.04;100.00;98568.27;107598;1272;22530;-68
2023/02/02 03:10:51;;;;;;;12.70;5.30;;;;;;;1.00;100.00;98565.84;107396;1275;22546;-68
2023/02/02 03:13:19;;;;;;;18.00;5.70;;;;;;;0.98;100.00;98576.11;107461;1274;24428;-68
2023/02/02 03:15:47;;;;;;;13.70;5.60;;;;;;;1.00;100.00;98569.75;107584;1269;22519;-69
2023/02/02 03:18:16;;;;;;;11.90;5.20;;;;;;;1.00;100.00;98572.02;107785;1275;25461;-68
2023/02/02 03:20:45;;;;;;;15.50;5.80;;;;;;;0.95;100.00;98576.95;107500;1274;22531;-69
2023/02/02 03:23:13;;;;;;;13.10;6.10;;;;;;;0.88;100.00;98574.45;107533;1274;25553;-69
2023/02/02 03:25:42;;;;;;;15.80;6.30;;;;;;;0.92;100.00;98576.07;110413;1275;23267;-69
2023/02/02 03:28:10;;;;;;;14.80;5.30;;;;;;;0.95;100.00;98575.84;110392;1275;22431;-69
2023/02/02 03:30:38;;;;;;;12.30;5.90;;;;;;;0.94;100.00;98573.51;110466;1273;22561;-70
2023/02/02 03:33:07;;;;;;;13.30;5.40;;;;;;;0.89;100.00;98571.64;110453;1272;23156;-69
2023/02/02 03:35:35;;;;;;;16.20;5.50;;;;;;;0.88;100.00;98571.40;110475;1275;22182;-69
2023/02/02 03:38:03;;;;;;;13.90;5.90;;;;;;;0.93;100.00;98574.07;110485;1273;22290;-69
2023/02/02 03:40:31;;;;;;;12.10;6.20;;;;;;;0.94;100.00;98576.02;108800;1275;23404;-69
2023/02/02 03:42:59;;;;;;;15.80;6.30;;;;;;;0.91;100.00;98578.27;107655;1274;22568;-69
2023/02/02 03:45:27;;;;;;;13.30;5.70;;;;;;;0.95;100.00;98581.97;107531;1274;23146;-68
2023/02/02 03:47:55;;;;;;;12.60;6.00;;;;;;;0.99;100.00;98579.23;107658;1274;25542;-68
2023/02/02 03:50:24;;;;;;;13.10;5.90;;;;;;;0.97;100.00;98575.92;107699;1274;25349;-68
2023/02/02 03:52:52;;;;;;;12.70;5.90;;;;;;;0.94;100.00;98570.98;107580;1274;22549;-69
2023/02/02 03:55:21;;;;;;;13.90;5.60;;;;;;;0.97;100.00;98565.32;107432;1275;23486;-68
2023/02/02 03:57:49;;;;;;;14.30;5.60;;;;;;;1.02;100.00;98567.11;107528;1275;22530;-69
2023/02/02 04:00:18;;;;;;;17.20;6.00;;;;;;;0.99;100.00;98566.03;107677;1275;26186;-69
2023/02/02 04:02:46;;;;;;;16.30;6.40;;;;;;;0.97;100.00;98571.09;107565;1273;23227;-69
2023/02/02 04:05:15;;;;;;;14.80;6.20;;;;;;;0.99;100.00;98570.18;107405;1272;23471;-69
2023/02/02 04:07:43;;;;;;;11.40;5.10;;;;;;;1.01;100.00;98573.95;107401;1275;25337;-69
2023/02/02 04:10:11;;;;;;;14.90;5.20;;;;;;;1.00;100.00;98577.74;107687;1275;24057;-69
2023/02/02 04:12:40;;;;;;;12.60;6.00;;;;;;;0.96;100.00;98582.82;107587;1275;25957;-69
2023/02/02 04:15:08;;;;;;;12.40;5.90;;;;;;;0.91;100.00;98584.54;107596;1273;23951;-69
2023/02/02 04:17:38;;;;;;;13.90;5.80;;;;;;;0.94;100.00;98584.59;107515;1275;22568;-69
2023/02/02 04:20:07;;;;;;;11.50;5.90;;;;;;;0.98;100.00;98582.41;110391;1275;22306;-67
2023/02/02 04:22:36;;;;;;;15.30;6.30;;;;;;;0.99;100.00;98582.88;110454;1274;22347;-67
2023/02/02 04:25:04;;;;;;;12.50;5.80;;;;;;;0.98;100.00;98583.18;110375;1271;22347;-67
2023/02/02 04:27:33;;;;;;;12.80;6.20;;;;;;;1.03;100.00;98582.20;110437;1275;22351;-68
2023/02/02 04:30:01;;;;;;;12.10;5.50;;;;;;;1.07;100.00;98583.62;110371;1274;23166;-68
2023/02/02 04:32:29;;;;;;;16.60;7.10;;;;;;;1.03;100.00;98586.60;110421;1265;22321;-68
2023/02/02 04:34:58;;;;;;;12.50;6.10;;;;;;;0.99;100.00;98586.19;110428;1274;22206;-68
2023/02/02 04:37:26;;;;;;;13.50;5.80;;;;;;;1.02;100.00;98590.50;110318;1275;22193;-68
2023/02/02 04:39:54;;;;;;;12.90;5.60;;;;;;;1.05;100.00;98590.44;110447;1275;22265;-68
2023/02/02 04:42:23;;;;;;;14.70;6.10;;;;;;;1.04;100.00;98587.58;110428;1271;22352;-68
2023/02/02 04:44:51;;;;;;;13.10;5.30;;;;;;;1.09;100.00;98589.33;110411;1275;22263;-68
2023/02/02 04:47:19;;;;;;;14.30;5.80;;;;;;;1.13;100.00;98585.60;110439;1274;22273;-68
2023/02/02 04:49:49;;;;;;;13.70;6.10;;;;;;;1.13;100.00;98588.40;110456;1275;22416;-68
2023/02/02 04:52:17;;;;;;;11.70;6.10;;;;;;;1.10;100.00;98592.90;110419;1275;22260;-68
2023/02/02 04:54:47;;;;;;;13.20;6.20;;;;;;;1.12;100.00;98595.88;110446;1272;22408;-68
2023/02/02 04:57:16;;;;;;;11.60;5.60;;;;;;;1.15;100.00;98595.98;110457;1269;22207;-68
2023/02/02 04:59:45;;;;;;;12.70;6.10;;;;;;;1.12;100.00;98603.23;110444;1274;22368;-68
2023/02/02 05:02:13;;;;;;;13.10;6.50;;;;;;;1.10;100.00;98599.54;110443;1273;23078;-68
2023/02/02 05:04:42;;;;;;;15.10;6.20;;;;;;;1.13;100.00;98600.15;110388;1272;22420;-68
2023/02/02 05:07:10;;;;;;;10.60;5.70;;;;;;;1.16;100.00;98601.64;110411;1271;22355;-68
2023/02/02 05:09:39;;;;;;;12.10;5.80;;;;;;;1.10;100.00;98602.91;110405;1273;22382;-68
2023/02/02 05:12:07;;;;;;;13.30;6.60;;;;;;;1.03;100.00;98601.50;110460;1269;22248;-69
2023/02/02 05:14:35;;;;;;;13.20;6.80;;;;;;;1.05;100.00;98600.41;109688;1275;22834;-68
2023/02/02 05:17:03;;;;;;;13.00;6.40;;;;;;;1.09;100.00;98601.72;107345;1272;23322;-68
2023/02/02 05:19:32;;;;;;;15.90;7.20;;;;;;;1.07;100.00;98604.00;107344;1274;26227;-68
2023/02/02 05:22:00;;;;;;;14.50;6.60;;;;;;;1.04;100.00;98603.23;107345;1275;24274;-67
2023/02/02 05:24:29;;;;;;;12.00;5.50;;;;;;;1.07;100.00;98605.44;107402;1275;24257;-69
2023/02/02 05:26:59;;;;;;;9.90;5.70;;;;;;;1.09;100.00;98604.13;107333;1274;23280;-68
2023/02/02 05:29:28;;;;;;;14.90;6.70;;;;;;;1.06;100.00;98608.09;107359;1273;25392;-68
2023/02/02 05:31:56;;;;;;;13.60;5.60;;;;;;;1.04;100.00;98612.35;107449;1275;22535;-68
2023/02/02 05:34:25;;;;;;;12.40;5.40;;;;;;;1.09;100.00;98616.78;107878;1274;25389;-68
2023/02/02 05:36:53;;;;;;;10.70;5.40;;;;;;;1.13;100.00;98619.75;107561;1273;22544;-68
2023/02/02 05:39:22;;;;;;;12.10;6.20;;;;;;;1.11;100.00;98625.06;107482;1268;23159;-68
2023/02/02 05:42:07;;;;;;;12.00;6.00;;;;;;;1.12;100.00;98621.14;104138;1306;545094;-68
2023/02/02 05:44:35;;;;;;;10.40;6.20;;;;;;;1.16;100.00;98631.89;106933;1279;23405;-68
2023/02/02 05:47:03;;;;;;;12.20;5.50;;;;;;;1.18;100.00;98627.10;106973;1282;22526;-68
2023/02/02 08:33:43;;;;;;;15.10;10.30;;;;;;;1.42;100.00;98702.76;103598;1304;545086;-66
2023/02/02 08:36:22;;;;;;;13.80;8.10;;;;;;;1.59;100.00;98709.86;105786;1282;25409;-66
2023/02/02 08:38:51;;;;;;;9.90;6.50;;;;;;;1.83;100.00;98711.66;106814;1283;22556;-67
2023/02/02 08:41:21;;;;;;;9.10;6.30;;;;;;;2.04;100.00;98716.02;106648;1288;23275;-67
2023/02/02 08:43:50;;;;;;;11.30;7.10;;;;;;;2.19;100.00;98721.70;106864;1286;25646;-68
2023/02/02 08:46:18;;;;;;;12.60;8.40;;;;;;;2.32;100.00;98726.39;106553;1286;226738;-68
2023/02/02 08:48:47;;;;;;;9.50;6.30;;;;;;;2.55;100.00;98721.70;107003;1286;22573;-68
2023/02/02 08:51:17;;;;;;;7.40;5.30;;;;;;;2.80;100.00;98720.48;107087;1286;22532;-68
2023/02/02 08:53:46;;;;;;;9.70;6.70;;;;;;;2.95;100.00;98720.00;107072;1285;25370;-68
2023/02/02 08:56:19;;;;;;;7.60;5.80;;;;;;;3.07;100.00;98724.27;107021;1286;25363;-68
2023/02/02 08:58:52;;;;;;;8.30;5.70;;;;;;;3.20;100.00;98724.39;109747;1286;22176;-68
2023/02/02 09:01:22;;;;;;;9.50;5.80;;;;;;;3.37;100.00;98727.48;109743;1286;22892;-68
2023/02/02 09:03:56;;;;;;;7.40;5.30;;;;;;;3.49;100.00;98724.83;109734;1279;22540;-68
2023/02/02 09:06:32;;;;;;;7.10;5.60;;;;;;;3.53;100.00;98727.46;107422;1278;25248;-68
2023/02/02 09:09:04;;;;;;;8.30;5.50;;;;;;;3.56;100.00;98730.73;107227;1279;23446;-68
2023/02/02 09:11:32;;;;;;;7.60;5.60;;;;;;;3.65;100.00;98726.20;107615;1278;22672;-68
2023/02/02 09:14:01;;;;;;;9.10;5.70;;;;;;;3.68;100.00;98725.70;107444;1276;22669;-68
2023/02/02 09:16:30;;;;;;;9.50;5.80;;;;;;;3.61;100.00;98725.46;107378;1279;26121;-68
2023/02/02 09:18:58;;;;;;;9.40;7.10;;;;;;;3.55;100.00;98723.27;107455;1279;23142;-68
2023/02/02 09:21:26;;;;;;;9.60;6.10;;;;;;;3.50;100.00;98730.45;107539;1278;23817;-68
2023/02/02 09:23:55;;;;;;;8.80;5.70;;;;;;;3.49;100.00;98722.99;107498;1279;22695;-68
2023/02/02 09:26:25;;;;;;;7.90;5.60;;;;;;;3.44;100.00;98722.17;107539;1279;22576;-68
2023/02/02 09:28:57;;;;;;;8.50;5.80;;;;;;;3.34;100.00;98723.83;110140;1279;22225;-68
2023/02/02 09:31:25;;;;;;;8.50;5.70;;;;;;;3.29;100.00;98723.83;110131;1279;22436;-68
2023/02/02 09:33:54;;;;;;;8.70;5.80;;;;;;;3.26;100.00;98719.20;110192;1279;22218;-68
2023/02/02 09:36:23;;;;;;;8.40;5.80;;;;;;;3.26;100.00;98718.39;110176;1279;22301;-68
2023/02/02 09:38:51;;;;;;;8.20;5.80;;;;;;;3.24;100.00;98714.05;110163;1278;22503;-68
2023/02/02 09:41:41;;;;;;;7.10;5.50;;;;;;;3.23;100.00;98712.60;110193;1279;22211;-68
2023/02/02 09:44:15;;;;;;;8.50;6.20;;;;;;;3.25;100.00;98703.54;110182;1279;22244;-68
2023/02/02 09:47:01;;;;;;;9.20;6.60;;;;;;;3.38;100.00;98697.05;110153;1279;22197;-68
2023/02/02 09:49:34;;;;;;;9.60;6.50;;;;;;;3.52;100.00;98690.95;110155;1278;22451;-68
2023/02/02 09:52:12;;;;;;;11.10;7.00;;;;;;;3.53;100.00;98688.65;109989;1279;22246;-68
2023/02/02 09:54:45;;;;;;;6.90;5.00;;;;;;;3.56;100.00;98684.70;109976;1279;22239;-68
2023/02/02 09:57:32;;;;;;;8.10;5.50;;;;;;;3.64;100.00;98686.94;109987;1257;22195;-68
2023/02/02 10:00:01;;;;;;;8.40;5.70;;;;;;;3.65;100.00;98689.33;110184;1279;22218;-68
2023/02/02 10:02:39;;;;;;;7.60;5.20;;;;;;;3.59;100.00;98680.65;110044;1279;22269;-68
2023/02/02 10:05:22;;;;;;;6.80;5.10;;;;;;;3.60;100.00;98677.91;110025;1279;22201;-68
2023/02/02 10:07:52;;;;;;;8.10;5.80;;;;;;;3.69;100.00;98675.22;110169;1279;22287;-69
2023/02/02 10:10:25;;;;;;;7.90;5.10;;;;;;;3.70;100.00;98669.67;110008;1279;22218;-68
2023/02/02 10:13:10;;;;;;;6.80;4.70;;;;;;;3.76;100.00;98673.30;110169;1279;22274;-68
2023/02/02 10:15:50;;;;;;;7.00;4.30;;;;;;;3.95;100.00;98672.58;109991;1278;22356;-68
2023/02/02 10:18:38;;;;;;;6.60;3.90;;;;;;;4.19;100.00;98674.58;110012;1279;22277;-68
2023/02/02 10:21:29;;;;;;;7.50;4.80;;;;;;;4.36;100.00;98673.22;109950;1279;22152;-68
2023/02/02 10:23:57;;;;;;;8.50;5.40;;;;;;;4.46;100.00;98669.35;110046;1279;22346;-68
2023/02/02 10:26:39;;;;;;;6.60;4.70;;;;;;;4.50;100.00;98668.15;110144;1279;23710;-68
2023/02/02 10:29:22;;;;;;;6.30;4.10;;;;;;;4.67;100.00;98670.97;110029;1279;22222;-68
2023/02/02 10:32:09;;;;;;;5.70;4.30;;;;;;;4.78;100.00;98672.83;110185;1279;23126;-68
2023/02/02 10:34:41;;;;;;;6.60;4.40;;;;;;;4.82;100.00;98665.94;110170;1278;22207;-68
2023/02/02 10:37:32;;;;;;;6.40;4.20;;;;;;;4.85;100.00;98669.58;110186;1279;22211;-68
2023/02/02 10:40:30;;;;;;;7.30;4.20;;;;;;;4.97;100.00;98668.13;109020;1279;24234;-68
2023/02/02 10:46:02;;;;;;;6.10;4.60;;;;;;;5.01;100.00;98668.27;107278;1279;23809;-68
2023/02/02 10:48:34;;;;;;;7.70;5.20;;;;;;;4.88;100.00;98663.51;107086;1259;27664;-68
2023/02/02 10:51:11;;;;;;;8.40;5.10;;;;;;;4.87;100.00;98661.70;107273;1279;25395;-68
2023/02/02 10:53:39;;;;;;;6.60;4.90;;;;;;;4.91;100.00;98667.23;107543;1279;25273;-68
2023/02/02 10:56:10;;;;;;;6.60;5.20;;;;;;;4.86;100.00;98664.52;107352;1263;25134;-68
2023/02/02 10:58:45;;;;;;;8.10;4.90;;;;;;;4.83;100.00;98658.73;107313;1278;25404;-68
2023/02/02 11:01:16;;;;;;;21.40;13.60;;;;;;;4.79;100.00;98661.77;107804;1278;22615;-68
2023/02/02 11:03:45;;;;;;;14.80;9.20;;;;;;;4.81;100.00;98656.18;107659;1279;22538;-68
2023/02/02 11:09:03;;;;;;;7.40;5.20;;;;;;;4.84;100.00;98656.69;107636;1276;23271;-67
2023/02/02 11:11:41;;;;;;;7.50;5.30;;;;;;;4.82;100.00;98659.41;107639;1276;25508;-68
2023/02/02 11:14:14;;;;;;;9.50;5.60;;;;;;;4.76;100.00;98662.73;107677;1275;24253;-67
2023/02/02 11:16:42;;;;;;;9.50;4.90;;;;;;;4.70;100.00;98662.75;107649;1276;22523;-68
2023/02/02 11:19:20;;;;;;;7.30;4.50;;;;;;;4.72;100.00;98666.70;107686;1275;24357;-68
2023/02/02 11:22:00;;;;;;;7.50;5.30;;;;;;;4.71;100.00;98657.25;108036;1276;22939;-68
2023/02/02 11:24:29;;;;;;;9.70;5.50;;;;;;;4.68;100.00;98656.36;110412;1274;22282;-68
2023/02/02 11:27:01;;;;;;;9.00;5.40;;;;;;;4.64;100.00;98651.27;110374;1276;22386;-68
2023/02/02 11:29:42;;;;;;;8.40;4.90;;;;;;;4.69;100.00;98649.52;110396;1275;22403;-68
2023/02/02 11:32:18;;;;;;;7.60;5.00;;;;;;;4.71;100.00;98651.32;110194;1275;22286;-68
2023/02/02 11:34:46;;;;;;;7.10;5.10;;;;;;;4.63;100.00;98645.86;110419;1276;22207;-68
2023/02/02 11:37:19;;;;;;;7.80;5.00;;;;;;;4.55;100.00;98646.52;108404;1275;23130;-68
2023/02/02 11:39:48;;;;;;;9.60;5.80;;;;;;;4.53;100.00;98648.72;107687;1273;22563;-68
2023/02/02 11:42:17;;;;;;;8.80;5.30;;;;;;;4.56;100.00;98653.73;107461;1275;22555;-68
2023/02/02 11:44:47;;;;;;;7.90;5.00;;;;;;;4.64;100.00;98650.73;107639;1276;23258;-67
2023/02/02 11:47:23;;;;;;;7.60;5.20;;;;;;;4.67;100.00;98655.56;107330;1275;25402;-67
2023/02/02 11:49:52;;;;;;;7.50;5.00;;;;;;;4.64;100.00;98653.20;107578;1276;25224;-68
2023/02/02 11:52:22;;;;;;;10.50;7.10;;;;;;;4.60;100.00;98653.89;107738;1276;22558;-67
2023/02/02 11:54:57;;;;;;;12.00;6.90;;;;;;;4.64;100.00;98653.74;107577;1276;24034;-67
2023/02/02 11:57:27;;;;;;;8.10;5.40;;;;;;;4.71;100.00;98655.84;107560;1275;24117;-67
2023/02/02 12:00:15;;;;;;;9.10;5.00;;;;;;;4.73;100.00;98658.71;107568;1275;24192;-68
2023/02/02 12:02:47;;;;;;;7.70;4.70;;;;;;;4.67;100.00;98657.27;107612;1275;25318;-68
2023/02/02 12:05:18;;;;;;;7.30;4.60;;;;;;;4.59;100.00;98658.66;107541;1275;22528;-68
2023/02/02 12:07:47;;;;;;;7.90;5.30;;;;;;;4.51;100.00;98658.40;109059;1275;22499;-68
2023/02/02 12:10:25;;;;;;;9.00;6.30;;;;;;;4.45;100.00;98660.57;110432;1274;22415;-68
2023/02/02 12:13:07;;;;;;;6.80;4.70;;;;;;;4.41;100.00;98664.91;110292;1275;22863;-68
2023/02/02 12:15:41;;;;;;;8.00;4.80;;;;;;;4.35;100.00;98662.27;110314;1275;22923;-69
2023/02/02 12:18:32;;;;;;;7.70;4.70;;;;;;;4.26;100.00;98663.43;110416;1275;22179;-68
2023/02/02 12:21:28;;;;;;;8.40;5.30;;;;;;;4.24;100.00;98669.18;110437;1276;22229;-68
2023/02/02 12:24:08;;;;;;;8.60;5.00;;;;;;;4.24;100.00;98669.67;110410;1276;22212;-68
2023/02/02 12:26:37;;;;;;;8.90;6.00;;;;;;;4.30;100.00;98669.99;110413;1275;22511;-68
2023/02/02 12:29:10;;;;;;;11.40;7.10;;;;;;;4.32;100.00;98667.20;110176;1275;22469;-69
2023/02/02 12:31:57;;;;;;;11.40;6.40;;;;;;;4.29;100.00;98666.58;110290;1276;22384;-68
2023/02/02 12:34:46;;;;;;;9.80;7.00;;;;;;;4.29;100.00;98670.23;110422;1275;22682;-68
2023/02/02 12:37:33;;;;;;;8.90;5.60;;;;;;;4.27;100.00;98671.80;110036;1275;22524;-68
2023/02/02 12:40:27;;;;;;;10.40;6.20;;;;;;;4.35;100.00;98670.89;107689;1273;22645;-68
2023/02/02 12:43:20;;;;;;;7.70;4.50;;;;;;;4.37;100.00;98673.83;107572;1276;23379;-68
2023/02/02 12:46:36;;;;;;;7.80;4.90;;;;;;;4.30;100.00;98673.49;107710;1276;25310;-68
2023/02/02 12:49:07;;;;;;;9.10;5.40;;;;;;;4.22;100.00;98669.05;107311;1276;25281;-68
2023/02/02 12:52:14;;;;;;;8.40;4.90;;;;;;;4.16;100.00;98667.23;107566;1276;23276;-68
2023/02/02 12:54:45;;;;;;;9.60;5.40;;;;;;;4.18;100.00;98671.88;107560;1276;22520;-68
2023/02/02 12:57:41;;;;;;;11.00;6.70;;;;;;;4.12;100.00;98664.66;110381;1275;22912;-68
2023/02/02 13:00:18;;;;;;;7.60;5.80;;;;;;;4.05;100.00;98664.00;110299;1276;22356;-68
2023/02/02 13:03:26;;;;;;;11.30;5.70;;;;;;;3.96;100.00;98667.54;110209;1273;22958;-69
2023/02/02 13:06:14;;;;;;;9.00;5.40;;;;;;;3.97;100.00;98669.36;109912;1275;23079;-69
2023/02/02 13:08:46;;;;;;;10.70;5.70;;;;;;;3.99;100.00;98673.37;110408;1275;22166;-69
2023/02/02 13:11:31;;;;;;;8.70;5.60;;;;;;;3.92;100.00;98670.94;110440;1275;23415;-68
2023/02/02 13:14:31;;;;;;;11.50;5.70;;;;;;;3.84;100.00;98673.60;110201;1275;22152;-68
2023/02/02 13:17:12;;;;;;;9.20;5.40;;;;;;;3.77;100.00;98674.13;110369;1276;22354;-69
2023/02/02 13:19:43;;;;;;;11.80;7.10;;;;;;;3.76;100.00;98669.80;110285;1276;22455;-69
2023/02/02 13:22:21;;;;;;;17.50;9.60;;;;;;;3.75;100.00;98678.04;110308;1275;22774;-69
2023/02/02 13:24:50;;;;;;;9.80;6.20;;;;;;;3.71;100.00;98678.04;110174;1276;23122;-69
2023/02/02 13:27:19;;;;;;;10.90;6.50;;;;;;;3.62;100.00;98674.98;110379;1270;22200;-68
2023/02/02 13:29:53;;;;;;;18.10;10.20;;;;;;;3.56;100.00;98672.06;110355;1276;22223;-68
2023/02/02 13:32:31;;;;;;;14.20;9.00;;;;;;;3.48;100.00;98674.29;110139;1272;22190;-67
2023/02/02 13:35:12;;;;;;;11.30;7.00;;;;;;;3.48;100.00;98672.23;110130;1275;22332;-68
2023/02/02 13:38:13;;;;;;;12.40;9.00;;;;;;;3.47;100.00;98671.92;110329;1273;22358;-68
2023/02/02 13:40:42;;;;;;;19.60;12.80;;;;;;;3.45;100.00;98675.65;110273;1273;22357;-68
2023/02/02 13:43:11;;;;;;;26.00;13.30;;;;;;;3.43;100.00;98675.20;110392;1276;22491;-68
2023/02/02 13:45:58;;;;;;;17.20;10.50;;;;;;;3.44;100.00;98679.84;110380;1270;23127;-68
2023/02/02 13:48:32;;;;;;;20.10;11.30;;;;;;;3.51;100.00;98675.65;110399;1276;23125;-68
2023/02/02 13:51:32;;;;;;;39.20;18.40;;;;;;;3.57;100.00;98677.18;110372;1272;22305;-69
2023/02/02 13:54:15;;;;;;;18.60;10.10;;;;;;;3.55;100.00;98683.04;110116;1267;22188;-68
2023/02/02 13:57:04;;;;;;;20.00;10.90;;;;;;;3.49;100.00;98684.15;110374;1276;22297;-68
2023/02/02 13:59:54;;;;;;;14.70;9.10;;;;;;;3.45;100.00;98685.67;110408;1276;22213;-69
2023/02/02 14:02:25;;;;;;;19.10;11.90;;;;;;;3.44;100.00;98686.83;110400;1276;23810;-68
2023/02/02 14:04:55;;;;;;;16.40;9.40;;;;;;;3.41;100.00;98688.52;110427;1273;22962;-68
2023/02/02 14:07:36;;;;;;;11.00;6.70;;;;;;;3.35;100.00;98687.73;110257;1273;22313;-68
2023/02/02 14:10:05;;;;;;;13.50;7.50;;;;;;;3.27;100.00;98695.55;110402;1276;22356;-68
2023/02/02 14:12:33;;;;;;;13.00;8.80;;;;;;;3.19;100.00;98700.77;109618;1275;22546;-68
2023/02/02 14:15:02;;;;;;;17.00;10.00;;;;;;;3.15;100.00;98703.84;107748;1271;25488;-68
2023/02/02 14:17:33;;;;;;;17.10;12.40;;;;;;;3.18;100.00;98706.93;107531;1276;23277;-68
2023/02/02 14:20:03;;;;;;;16.80;11.50;;;;;;;3.19;100.00;98710.56;107605;1275;23319;-68
2023/02/02 14:22:39;;;;;;;14.60;10.40;;;;;;;3.13;100.00;98714.57;107594;1275;22547;-68
2023/02/02 14:25:32;;;;;;;16.30;11.70;;;;;;;3.00;100.00;98719.29;107523;1275;25305;-69
2023/02/02 14:28:03;;;;;;;12.80;9.10;;;;;;;2.89;100.00;98720.41;107876;1273;25376;-68
2023/02/02 14:30:33;;;;;;;13.40;9.30;;;;;;;2.84;100.00;98721.52;107372;1276;26494;-68
2023/02/02 14:33:18;;;;;;;12.80;8.40;;;;;;;2.80;100.00;98725.61;108831;1276;25401;-69
2023/02/02 14:35:46;;;;;;;15.30;9.90;;;;;;;2.69;100.00;98730.10;107555;1276;25314;-69
2023/02/02 14:38:40;;;;;;;10.90;9.00;;;;;;;2.54;100.00;98729.11;107625;1276;22739;-68
2023/02/02 14:43:43;;;;;;;12.70;9.30;;;;;;;2.43;100.00;98730.71;107666;1276;23655;-68
2023/02/02 16:32:51;;;;;;;40.20;27.30;;;;;;;-0.17;100.00;98839.33;104537;1302;544887;-66
2023/02/02 16:35:35;;;;;;;39.00;28.60;;;;;;;-0.04;100.00;98845.42;106639;1283;22549;-67
2023/02/02 16:38:24;;;;;;;36.90;25.70;;;;;;;0.14;100.00;98844.65;106455;1289;22586;-67
2023/02/02 16:41:11;;;;;;;36.80;26.40;;;;;;;0.31;100.00;98844.30;106776;1285;25535;-67
2023/02/02 16:43:40;;;;;;;40.30;29.40;;;;;;;0.43;100.00;98843.17;109466;1282;22458;-67
2023/02/02 16:46:16;;;;;;;34.60;27.90;;;;;;;0.54;100.00;98845.16;109349;1287;255619;-67
2023/02/02 16:48:45;;;;;;;42.00;29.30;;;;;;;0.65;100.00;98846.42;109606;1283;23214;-67